sensor_id;sensor_type;location;lat;lon;timestamp;temperature;humidity
16781;DHT22;8507;50.056;8.248;2023-08-20T00:00:13;23.90;99.90
16781;DHT22;8507;50.056;8.248;2023-08-20T00:02:42;23.90;99.90
16781;DHT22;8507;50.056;8.248;2023-08-20T00:05:08;24.00;99.90
16781;DHT22;8507;50.056;8.248;2023-08-20T00:07:34;24.10;99.90
16781;DHT22;8507;50.056;8.248;2023-08-20T00:10:00;24.00;99.90
16781;DHT22;8507;50.056;8.248;2023-08-20T00:12:26;24.00;99.90
16781;DHT22;8507;50.056;8.248;2023-08-20T00:15:02;23.60;99.90
16781;DHT22;8507;50.056;8.248;2023-08-20T00:17:35;23.10;99.90
16781;DHT22;8507;50.056;8.248;2023-08-20T00:20:03;22.90;99.90
16781;DHT22;8507;50.056;8.248;2023-08-20T00:22:39;22.90;99.90
16781;DHT22;8507;50.056;8.248;2023-08-20T00:25:05;23.10;99.90
16781;DHT22;8507;50.056;8.248;2023-08-20T00:27:32;23.20;99.90
16781;DHT22;8507;50.056;8.248;2023-08-20T00:29:58;23.20;99.90
16781;DHT22;8507;50.056;8.248;2023-08-20T00:32:23;23.20;99.90
16781;DHT22;8507;50.056;8.248;2023-08-20T00:34:49;23.30;99.90
16781;DHT22;8507;50.056;8.248;2023-08-20T00:37:15;23.20;99.90
16781;DHT22;8507;50.056;8.248;2023-08-20T00:39:41;22.80;99.90
16781;DHT22;8507;50.056;8.248;2023-08-20T00:42:06;22.70;99.90
16781;DHT22;8507;50.056;8.248;2023-08-20T00:44:33;22.80;99.90
16781;DHT22;8507;50.056;8.248;2023-08-20T00:47:00;22.90;99.90
16781;DHT22;8507;50.056;8.248;2023-08-20T00:49:26;22.90;99.90
16781;DHT22;8507;50.056;8.248;2023-08-20T00:51:52;23.00;99.90
16781;DHT22;8507;50.056;8.248;2023-08-20T00:54:19;23.10;99.90
16781;DHT22;8507;50.056;8.248;2023-08-20T00:56:46;23.10;99.90
16781;DHT22;8507;50.056;8.248;2023-08-20T00:59:12;23.20;99.90
16781;DHT22;8507;50.056;8.248;2023-08-20T01:01:38;23.20;99.90
16781;DHT22;8507;50.056;8.248;2023-08-20T01:04:04;23.30;99.90
16781;DHT22;8507;50.056;8.248;2023-08-20T01:06:44;23.20;99.90
16781;DHT22;8507;50.056;8.248;2023-08-20T01:12:12;22.70;99.90
16781;DHT22;8507;50.056;8.248;2023-08-20T01:14:39;22.60;99.90
16781;DHT22;8507;50.056;8.248;2023-08-20T01:17:04;22.70;99.90
16781;DHT22;8507;50.056;8.248;2023-08-20T01:19:30;22.80;99.90
16781;DHT22;8507;50.056;8.248;2023-08-20T01:29:55;22.70;99.90
16781;DHT22;8507;50.056;8.248;2023-08-20T01:32:22;22.70;99.90
16781;DHT22;8507;50.056;8.248;2023-08-20T01:34:48;22.50;99.90
16781;DHT22;8507;50.056;8.248;2023-08-20T01:37:13;22.40;99.90
16781;DHT22;8507;50.056;8.248;2023-08-20T01:39:39;22.40;99.90
16781;DHT22;8507;50.056;8.248;2023-08-20T01:42:05;22.50;99.90
16781;DHT22;8507;50.056;8.248;2023-08-20T01:44:31;22.50;99.90
16781;DHT22;8507;50.056;8.248;2023-08-20T01:46:57;22.50;99.90
16781;DHT22;8507;50.056;8.248;2023-08-20T01:49:23;22.40;99.90
16781;DHT22;8507;50.056;8.248;2023-08-20T01:51:49;22.30;99.90
16781;DHT22;8507;50.056;8.248;2023-08-20T01:54:14;22.30;99.90
16781;DHT22;8507;50.056;8.248;2023-08-20T01:56:40;22.30;99.90
16781;DHT22;8507;50.056;8.248;2023-08-20T01:59:06;22.20;99.90
16781;DHT22;8507;50.056;8.248;2023-08-20T02:01:31;22.10;99.90
16781;DHT22;8507;50.056;8.248;2023-08-20T02:03:57;22.10;99.90
16781;DHT22;8507;50.056;8.248;2023-08-20T02:06:22;22.00;99.90
16781;DHT22;8507;50.056;8.248;2023-08-20T02:08:48;22.00;99.90
16781;DHT22;8507;50.056;8.248;2023-08-20T02:11:13;21.80;99.90
16781;DHT22;8507;50.056;8.248;2023-08-20T02:13:39;21.70;99.90
16781;DHT22;8507;50.056;8.248;2023-08-20T02:16:05;21.60;99.90
16781;DHT22;8507;50.056;8.248;2023-08-20T02:18:31;21.60;99.90
16781;DHT22;8507;50.056;8.248;2023-08-20T02:20:57;21.60;99.90
16781;DHT22;8507;50.056;8.248;2023-08-20T02:23:23;21.80;99.90
16781;DHT22;8507;50.056;8.248;2023-08-20T02:25:48;21.90;99.90
16781;DHT22;8507;50.056;8.248;2023-08-20T02:28:14;22.00;99.90
16781;DHT22;8507;50.056;8.248;2023-08-20T02:30:44;22.00;99.90
16781;DHT22;8507;50.056;8.248;2023-08-20T02:33:09;22.00;99.90
16781;DHT22;8507;50.056;8.248;2023-08-20T02:35:36;22.10;99.90
16781;DHT22;8507;50.056;8.248;2023-08-20T02:38:02;22.10;99.90
16781;DHT22;8507;50.056;8.248;2023-08-20T02:40:27;22.10;99.90
16781;DHT22;8507;50.056;8.248;2023-08-20T02:42:53;22.10;99.90
16781;DHT22;8507;50.056;8.248;2023-08-20T02:45:18;22.10;99.90
16781;DHT22;8507;50.056;8.248;2023-08-20T02:47:44;22.10;99.90
16781;DHT22;8507;50.056;8.248;2023-08-20T02:50:09;22.00;99.90
16781;DHT22;8507;50.056;8.248;2023-08-20T02:52:35;22.10;99.90
16781;DHT22;8507;50.056;8.248;2023-08-20T02:55:00;22.10;99.90
16781;DHT22;8507;50.056;8.248;2023-08-20T02:57:26;21.90;99.90
16781;DHT22;8507;50.056;8.248;2023-08-20T02:59:52;21.60;99.90
16781;DHT22;8507;50.056;8.248;2023-08-20T03:02:17;21.30;99.90
16781;DHT22;8507;50.056;8.248;2023-08-20T03:04:43;21.10;99.90
16781;DHT22;8507;50.056;8.248;2023-08-20T03:07:08;21.10;99.90
16781;DHT22;8507;50.056;8.248;2023-08-20T03:09:34;21.20;99.90
16781;DHT22;8507;50.056;8.248;2023-08-20T03:11:59;21.00;99.90
16781;DHT22;8507;50.056;8.248;2023-08-20T03:14:25;21.10;99.90
16781;DHT22;8507;50.056;8.248;2023-08-20T03:16:50;21.20;99.90
16781;DHT22;8507;50.056;8.248;2023-08-20T03:19:16;21.30;99.90
16781;DHT22;8507;50.056;8.248;2023-08-20T03:21:41;21.40;99.90
16781;DHT22;8507;50.056;8.248;2023-08-20T03:24:07;21.30;99.90
16781;DHT22;8507;50.056;8.248;2023-08-20T03:26:33;21.30;99.90
16781;DHT22;8507;50.056;8.248;2023-08-20T03:28:59;21.40;99.90
16781;DHT22;8507;50.056;8.248;2023-08-20T03:31:25;21.50;99.90
16781;DHT22;8507;50.056;8.248;2023-08-20T03:33:50;21.50;99.90
16781;DHT22;8507;50.056;8.248;2023-08-20T03:36:16;21.60;99.90
16781;DHT22;8507;50.056;8.248;2023-08-20T03:38:41;21.60;99.90
16781;DHT22;8507;50.056;8.248;2023-08-20T03:41:07;21.60;99.90
16781;DHT22;8507;50.056;8.248;2023-08-20T03:43:33;21.70;99.90
16781;DHT22;8507;50.056;8.248;2023-08-20T03:45:58;21.60;99.90
16781;DHT22;8507;50.056;8.248;2023-08-20T03:48:24;21.60;99.90
16781;DHT22;8507;50.056;8.248;2023-08-20T03:50:49;21.70;99.90
16781;DHT22;8507;50.056;8.248;2023-08-20T03:53:15;21.70;99.90
16781;DHT22;8507;50.056;8.248;2023-08-20T03:55:41;21.80;99.90
16781;DHT22;8507;50.056;8.248;2023-08-20T03:58:07;21.80;99.90
16781;DHT22;8507;50.056;8.248;2023-08-20T04:00:35;21.90;99.90
16781;DHT22;8507;50.056;8.248;2023-08-20T04:03:01;21.70;99.90
16781;DHT22;8507;50.056;8.248;2023-08-20T04:05:27;21.60;99.90
16781;DHT22;8507;50.056;8.248;2023-08-20T04:07:52;21.60;99.90
16781;DHT22;8507;50.056;8.248;2023-08-20T04:10:18;21.50;99.90
16781;DHT22;8507;50.056;8.248;2023-08-20T04:12:43;21.20;99.90
16781;DHT22;8507;50.056;8.248;2023-08-20T04:15:09;21.20;99.90
16781;DHT22;8507;50.056;8.248;2023-08-20T04:17:34;21.40;99.90
16781;DHT22;8507;50.056;8.248;2023-08-20T04:20:00;21.40;99.90
16781;DHT22;8507;50.056;8.248;2023-08-20T04:22:25;21.30;99.90
16781;DHT22;8507;50.056;8.248;2023-08-20T04:24:52;21.10;99.90
16781;DHT22;8507;50.056;8.248;2023-08-20T04:27:18;21.20;99.90
16781;DHT22;8507;50.056;8.248;2023-08-20T04:29:44;21.40;99.90
16781;DHT22;8507;50.056;8.248;2023-08-20T04:32:09;21.60;99.90
16781;DHT22;8507;50.056;8.248;2023-08-20T04:34:35;21.80;99.90
16781;DHT22;8507;50.056;8.248;2023-08-20T04:37:00;21.90;99.90
16781;DHT22;8507;50.056;8.248;2023-08-20T04:39:26;22.00;99.90
16781;DHT22;8507;50.056;8.248;2023-08-20T04:41:51;22.00;99.90
16781;DHT22;8507;50.056;8.248;2023-08-20T04:44:17;22.00;99.90
16781;DHT22;8507;50.056;8.248;2023-08-20T04:46:43;22.10;99.90
16781;DHT22;8507;50.056;8.248;2023-08-20T04:49:08;22.00;99.90
16781;DHT22;8507;50.056;8.248;2023-08-20T04:51:34;22.10;99.90
16781;DHT22;8507;50.056;8.248;2023-08-20T04:53:59;22.10;99.90
16781;DHT22;8507;50.056;8.248;2023-08-20T04:56:25;22.10;99.90
16781;DHT22;8507;50.056;8.248;2023-08-20T04:58:50;22.20;99.90
16781;DHT22;8507;50.056;8.248;2023-08-20T05:01:16;22.30;99.90
16781;DHT22;8507;50.056;8.248;2023-08-20T05:03:41;22.40;99.90
16781;DHT22;8507;50.056;8.248;2023-08-20T05:06:07;22.50;99.90
16781;DHT22;8507;50.056;8.248;2023-08-20T05:08:32;22.50;99.90
16781;DHT22;8507;50.056;8.248;2023-08-20T05:10:58;22.60;99.90
16781;DHT22;8507;50.056;8.248;2023-08-20T05:13:23;22.70;99.90
16781;DHT22;8507;50.056;8.248;2023-08-20T05:15:49;22.70;99.90
16781;DHT22;8507;50.056;8.248;2023-08-20T05:18:15;22.70;99.90
16781;DHT22;8507;50.056;8.248;2023-08-20T05:20:40;22.70;99.90
16781;DHT22;8507;50.056;8.248;2023-08-20T05:23:06;22.80;99.90
16781;DHT22;8507;50.056;8.248;2023-08-20T05:25:32;22.70;99.90
16781;DHT22;8507;50.056;8.248;2023-08-20T05:27:57;22.80;99.90
16781;DHT22;8507;50.056;8.248;2023-08-20T05:30:23;23.00;99.90
16781;DHT22;8507;50.056;8.248;2023-08-20T05:32:49;23.20;99.90
16781;DHT22;8507;50.056;8.248;2023-08-20T05:35:14;23.40;99.90
16781;DHT22;8507;50.056;8.248;2023-08-20T05:37:40;23.10;99.90
16781;DHT22;8507;50.056;8.248;2023-08-20T05:40:06;23.00;99.90
16781;DHT22;8507;50.056;8.248;2023-08-20T05:42:34;23.10;99.90
16781;DHT22;8507;50.056;8.248;2023-08-20T05:44:59;22.80;99.90
16781;DHT22;8507;50.056;8.248;2023-08-20T05:47:25;22.80;99.90
16781;DHT22;8507;50.056;8.248;2023-08-20T05:49:50;23.00;99.90
16781;DHT22;8507;50.056;8.248;2023-08-20T05:52:16;22.90;99.90
16781;DHT22;8507;50.056;8.248;2023-08-20T05:54:41;23.10;99.90
16781;DHT22;8507;50.056;8.248;2023-08-20T05:57:07;23.40;99.90
16781;DHT22;8507;50.056;8.248;2023-08-20T05:59:32;23.60;99.90
16781;DHT22;8507;50.056;8.248;2023-08-20T06:02:01;23.90;99.90
16781;DHT22;8507;50.056;8.248;2023-08-20T06:04:26;23.90;99.90
16781;DHT22;8507;50.056;8.248;2023-08-20T06:06:52;24.00;99.90
16781;DHT22;8507;50.056;8.248;2023-08-20T06:09:18;24.00;99.90
16781;DHT22;8507;50.056;8.248;2023-08-20T06:11:43;24.00;99.90
16781;DHT22;8507;50.056;8.248;2023-08-20T06:14:09;23.90;99.90
16781;DHT22;8507;50.056;8.248;2023-08-20T06:16:34;24.10;99.90
16781;DHT22;8507;50.056;8.248;2023-08-20T06:19:00;24.30;99.90
16781;DHT22;8507;50.056;8.248;2023-08-20T06:21:25;24.50;99.90
16781;DHT22;8507;50.056;8.248;2023-08-20T06:23:52;24.70;99.90
16781;DHT22;8507;50.056;8.248;2023-08-20T06:26:17;25.00;99.90
16781;DHT22;8507;50.056;8.248;2023-08-20T06:28:43;25.30;99.90
16781;DHT22;8507;50.056;8.248;2023-08-20T06:31:09;25.30;99.90
16781;DHT22;8507;50.056;8.248;2023-08-20T06:33:34;24.90;99.90
16781;DHT22;8507;50.056;8.248;2023-08-20T06:36:00;25.00;99.90
16781;DHT22;8507;50.056;8.248;2023-08-20T06:38:25;24.70;99.90
16781;DHT22;8507;50.056;8.248;2023-08-20T06:40:51;24.70;99.90
16781;DHT22;8507;50.056;8.248;2023-08-20T06:43:16;24.80;99.90
16781;DHT22;8507;50.056;8.248;2023-08-20T06:45:42;24.90;99.90
16781;DHT22;8507;50.056;8.248;2023-08-20T06:48:07;24.90;99.90
16781;DHT22;8507;50.056;8.248;2023-08-20T06:50:33;25.20;99.90
16781;DHT22;8507;50.056;8.248;2023-08-20T06:52:58;25.50;99.90
16781;DHT22;8507;50.056;8.248;2023-08-20T06:55:25;26.00;99.90
16781;DHT22;8507;50.056;8.248;2023-08-20T06:57:50;26.20;99.90
16781;DHT22;8507;50.056;8.248;2023-08-20T07:00:16;26.40;99.90
16781;DHT22;8507;50.056;8.248;2023-08-20T07:02:41;26.60;99.90
16781;DHT22;8507;50.056;8.248;2023-08-20T07:05:07;26.80;99.90
16781;DHT22;8507;50.056;8.248;2023-08-20T07:07:35;26.80;99.90
16781;DHT22;8507;50.056;8.248;2023-08-20T07:10:00;26.80;99.90
16781;DHT22;8507;50.056;8.248;2023-08-20T07:12:26;26.50;99.90
16781;DHT22;8507;50.056;8.248;2023-08-20T07:14:51;26.50;99.90
16781;DHT22;8507;50.056;8.248;2023-08-20T07:17:17;26.70;99.90
16781;DHT22;8507;50.056;8.248;2023-08-20T07:19:42;26.80;99.90
16781;DHT22;8507;50.056;8.248;2023-08-20T07:22:08;26.30;99.90
16781;DHT22;8507;50.056;8.248;2023-08-20T07:24:33;26.00;99.90
16781;DHT22;8507;50.056;8.248;2023-08-20T07:27:01;25.90;99.90
16781;DHT22;8507;50.056;8.248;2023-08-20T07:29:29;26.20;99.90
16781;DHT22;8507;50.056;8.248;2023-08-20T07:31:56;26.60;99.90
16781;DHT22;8507;50.056;8.248;2023-08-20T07:34:21;27.10;99.90
16781;DHT22;8507;50.056;8.248;2023-08-20T07:36:47;27.40;99.90
16781;DHT22;8507;50.056;8.248;2023-08-20T07:39:12;26.80;99.90
16781;DHT22;8507;50.056;8.248;2023-08-20T07:41:38;27.10;99.90
16781;DHT22;8507;50.056;8.248;2023-08-20T07:44:04;26.80;99.90
16781;DHT22;8507;50.056;8.248;2023-08-20T07:46:29;26.80;99.90
16781;DHT22;8507;50.056;8.248;2023-08-20T07:48:55;26.80;99.90
16781;DHT22;8507;50.056;8.248;2023-08-20T07:51:21;27.20;99.90
16781;DHT22;8507;50.056;8.248;2023-08-20T07:53:46;27.20;99.90
16781;DHT22;8507;50.056;8.248;2023-08-20T07:56:12;27.10;99.90
16781;DHT22;8507;50.056;8.248;2023-08-20T07:58:37;27.50;99.90
16781;DHT22;8507;50.056;8.248;2023-08-20T08:01:03;27.80;99.90
16781;DHT22;8507;50.056;8.248;2023-08-20T08:03:28;28.10;99.90
16781;DHT22;8507;50.056;8.248;2023-08-20T08:05:54;28.50;99.90
16781;DHT22;8507;50.056;8.248;2023-08-20T08:08:20;28.40;99.90
16781;DHT22;8507;50.056;8.248;2023-08-20T08:10:46;28.50;99.90
16781;DHT22;8507;50.056;8.248;2023-08-20T08:13:13;28.80;99.90
16781;DHT22;8507;50.056;8.248;2023-08-20T08:15:38;28.70;99.90
16781;DHT22;8507;50.056;8.248;2023-08-20T08:18:04;28.80;99.90
16781;DHT22;8507;50.056;8.248;2023-08-20T08:20:30;28.60;99.90
16781;DHT22;8507;50.056;8.248;2023-08-20T08:22:56;28.90;99.90
16781;DHT22;8507;50.056;8.248;2023-08-20T08:25:21;28.20;99.90
16781;DHT22;8507;50.056;8.248;2023-08-20T08:27:47;28.70;99.90
16781;DHT22;8507;50.056;8.248;2023-08-20T08:30:13;29.20;99.90
16781;DHT22;8507;50.056;8.248;2023-08-20T08:32:39;28.60;99.90
16781;DHT22;8507;50.056;8.248;2023-08-20T08:35:05;28.20;99.90
16781;DHT22;8507;50.056;8.248;2023-08-20T08:37:31;28.40;99.90
16781;DHT22;8507;50.056;8.248;2023-08-20T08:39:56;28.80;99.90
16781;DHT22;8507;50.056;8.248;2023-08-20T08:42:22;29.30;99.90
16781;DHT22;8507;50.056;8.248;2023-08-20T08:44:50;29.50;99.90
16781;DHT22;8507;50.056;8.248;2023-08-20T08:47:16;29.40;99.90
16781;DHT22;8507;50.056;8.248;2023-08-20T08:49:44;29.10;99.90
16781;DHT22;8507;50.056;8.248;2023-08-20T08:52:12;29.40;99.90
16781;DHT22;8507;50.056;8.248;2023-08-20T08:54:38;29.80;99.90
16781;DHT22;8507;50.056;8.248;2023-08-20T08:57:04;30.10;99.90
16781;DHT22;8507;50.056;8.248;2023-08-20T08:59:30;30.20;99.90
16781;DHT22;8507;50.056;8.248;2023-08-20T09:01:56;30.10;99.90
16781;DHT22;8507;50.056;8.248;2023-08-20T09:04:22;30.40;99.90
16781;DHT22;8507;50.056;8.248;2023-08-20T09:09:16;30.30;99.90
16781;DHT22;8507;50.056;8.248;2023-08-20T09:11:42;30.60;99.90
16781;DHT22;8507;50.056;8.248;2023-08-20T09:14:07;30.80;99.90
16781;DHT22;8507;50.056;8.248;2023-08-20T09:16:33;30.90;99.90
16781;DHT22;8507;50.056;8.248;2023-08-20T09:19:00;31.10;99.90
16781;DHT22;8507;50.056;8.248;2023-08-20T09:21:29;31.10;99.90
16781;DHT22;8507;50.056;8.248;2023-08-20T09:23:57;31.10;99.90
16781;DHT22;8507;50.056;8.248;2023-08-20T09:26:25;31.10;99.90
16781;DHT22;8507;50.056;8.248;2023-08-20T09:28:53;31.00;99.90
16781;DHT22;8507;50.056;8.248;2023-08-20T09:31:19;31.20;99.90
16781;DHT22;8507;50.056;8.248;2023-08-20T09:33:49;31.30;99.90
16781;DHT22;8507;50.056;8.248;2023-08-20T09:36:16;31.40;99.90
16781;DHT22;8507;50.056;8.248;2023-08-20T09:38:41;31.00;99.90
16781;DHT22;8507;50.056;8.248;2023-08-20T09:41:08;31.20;99.90
16781;DHT22;8507;50.056;8.248;2023-08-20T09:43:38;30.70;99.90
16781;DHT22;8507;50.056;8.248;2023-08-20T09:46:04;30.30;99.90
16781;DHT22;8507;50.056;8.248;2023-08-20T09:48:33;29.90;99.90
16781;DHT22;8507;50.056;8.248;2023-08-20T09:51:04;30.30;99.90
16781;DHT22;8507;50.056;8.248;2023-08-20T09:53:35;30.40;99.90
16781;DHT22;8507;50.056;8.248;2023-08-20T09:56:09;30.90;99.90
16781;DHT22;8507;50.056;8.248;2023-08-20T09:58:39;31.20;99.90
16781;DHT22;8507;50.056;8.248;2023-08-20T10:01:06;30.50;99.90
16781;DHT22;8507;50.056;8.248;2023-08-20T10:03:32;30.90;99.90
16781;DHT22;8507;50.056;8.248;2023-08-20T10:05:58;31.00;99.90
16781;DHT22;8507;50.056;8.248;2023-08-20T10:08:26;31.40;99.90
16781;DHT22;8507;50.056;8.248;2023-08-20T10:10:52;30.80;99.90
16781;DHT22;8507;50.056;8.248;2023-08-20T10:13:18;30.70;99.90
16781;DHT22;8507;50.056;8.248;2023-08-20T10:15:44;31.30;99.90
16781;DHT22;8507;50.056;8.248;2023-08-20T10:18:11;31.30;99.90
16781;DHT22;8507;50.056;8.248;2023-08-20T10:20:38;31.00;99.90
16781;DHT22;8507;50.056;8.248;2023-08-20T10:23:04;31.00;99.90
16781;DHT22;8507;50.056;8.248;2023-08-20T10:25:30;30.30;99.90
16781;DHT22;8507;50.056;8.248;2023-08-20T10:28:21;30.30;99.90
16781;DHT22;8507;50.056;8.248;2023-08-20T10:33:38;30.50;99.90
16781;DHT22;8507;50.056;8.248;2023-08-20T10:36:14;30.90;99.90
16781;DHT22;8507;50.056;8.248;2023-08-20T10:38:40;31.40;99.90
16781;DHT22;8507;50.056;8.248;2023-08-20T10:41:07;31.70;99.90
16781;DHT22;8507;50.056;8.248;2023-08-20T10:43:40;32.00;99.90
16781;DHT22;8507;50.056;8.248;2023-08-20T10:46:06;32.10;99.90
16781;DHT22;8507;50.056;8.248;2023-08-20T10:48:33;32.30;99.90
16781;DHT22;8507;50.056;8.248;2023-08-20T10:51:12;32.40;99.90
16781;DHT22;8507;50.056;8.248;2023-08-20T10:53:40;31.70;99.90
16781;DHT22;8507;50.056;8.248;2023-08-20T10:56:14;31.40;99.90
16781;DHT22;8507;50.056;8.248;2023-08-20T10:58:44;31.90;99.90
16781;DHT22;8507;50.056;8.248;2023-08-20T11:01:14;31.90;99.90
16781;DHT22;8507;50.056;8.248;2023-08-20T11:03:44;31.90;99.90
16781;DHT22;8507;50.056;8.248;2023-08-20T11:06:10;31.90;99.90
16781;DHT22;8507;50.056;8.248;2023-08-20T11:08:37;32.10;99.90
16781;DHT22;8507;50.056;8.248;2023-08-20T11:11:03;31.80;99.90
16781;DHT22;8507;50.056;8.248;2023-08-20T11:13:31;31.90;99.90
16781;DHT22;8507;50.056;8.248;2023-08-20T11:15:57;32.40;99.90
16781;DHT22;8507;50.056;8.248;2023-08-20T11:18:24;32.30;99.90
16781;DHT22;8507;50.056;8.248;2023-08-20T11:20:50;32.50;99.90
16781;DHT22;8507;50.056;8.248;2023-08-20T11:23:16;32.10;99.90
16781;DHT22;8507;50.056;8.248;2023-08-20T11:25:42;32.30;99.90
16781;DHT22;8507;50.056;8.248;2023-08-20T11:28:09;32.60;99.90
16781;DHT22;8507;50.056;8.248;2023-08-20T11:30:34;32.10;99.90
16781;DHT22;8507;50.056;8.248;2023-08-20T11:33:00;32.40;99.90
16781;DHT22;8507;50.056;8.248;2023-08-20T11:35:26;32.70;99.90
16781;DHT22;8507;50.056;8.248;2023-08-20T11:37:52;33.00;99.90
16781;DHT22;8507;50.056;8.248;2023-08-20T11:40:20;33.00;99.90
16781;DHT22;8507;50.056;8.248;2023-08-20T11:42:46;32.90;99.90
16781;DHT22;8507;50.056;8.248;2023-08-20T11:45:12;32.10;99.90
16781;DHT22;8507;50.056;8.248;2023-08-20T11:47:41;31.30;99.90
16781;DHT22;8507;50.056;8.248;2023-08-20T11:50:08;31.70;99.90
16781;DHT22;8507;50.056;8.248;2023-08-20T11:52:35;32.30;99.90
16781;DHT22;8507;50.056;8.248;2023-08-20T11:55:01;32.00;99.90
16781;DHT22;8507;50.056;8.248;2023-08-20T11:57:28;31.60;99.90
16781;DHT22;8507;50.056;8.248;2023-08-20T11:59:55;31.80;99.90
16781;DHT22;8507;50.056;8.248;2023-08-20T12:02:27;32.10;99.90
16781;DHT22;8507;50.056;8.248;2023-08-20T12:04:56;32.50;99.90
16781;DHT22;8507;50.056;8.248;2023-08-20T12:07:28;33.00;99.90
16781;DHT22;8507;50.056;8.248;2023-08-20T12:09:54;33.40;99.90
16781;DHT22;8507;50.056;8.248;2023-08-20T12:12:20;33.00;99.90
16781;DHT22;8507;50.056;8.248;2023-08-20T12:14:47;33.10;99.90
16781;DHT22;8507;50.056;8.248;2023-08-20T12:17:16;33.40;99.90
16781;DHT22;8507;50.056;8.248;2023-08-20T12:19:42;33.70;99.90
16781;DHT22;8507;50.056;8.248;2023-08-20T12:22:07;33.90;99.90
16781;DHT22;8507;50.056;8.248;2023-08-20T12:24:34;33.60;99.90
16781;DHT22;8507;50.056;8.248;2023-08-20T12:26:59;32.80;99.90
16781;DHT22;8507;50.056;8.248;2023-08-20T12:29:25;33.20;99.90
16781;DHT22;8507;50.056;8.248;2023-08-20T12:31:50;33.50;99.90
16781;DHT22;8507;50.056;8.248;2023-08-20T12:34:16;33.90;99.90
16781;DHT22;8507;50.056;8.248;2023-08-20T12:36:41;34.20;99.90
16781;DHT22;8507;50.056;8.248;2023-08-20T12:39:07;34.50;99.90
16781;DHT22;8507;50.056;8.248;2023-08-20T12:41:33;34.60;99.90
16781;DHT22;8507;50.056;8.248;2023-08-20T12:44:00;34.80;99.90
16781;DHT22;8507;50.056;8.248;2023-08-20T12:46:26;34.90;99.90
16781;DHT22;8507;50.056;8.248;2023-08-20T12:48:52;35.00;99.90
16781;DHT22;8507;50.056;8.248;2023-08-20T12:51:17;35.00;99.90
16781;DHT22;8507;50.056;8.248;2023-08-20T12:53:43;35.00;99.90
16781;DHT22;8507;50.056;8.248;2023-08-20T12:56:08;35.20;99.90
16781;DHT22;8507;50.056;8.248;2023-08-20T12:58:34;34.90;99.90
16781;DHT22;8507;50.056;8.248;2023-08-20T13:01:00;34.90;99.90
16781;DHT22;8507;50.056;8.248;2023-08-20T13:03:26;33.90;99.90
16781;DHT22;8507;50.056;8.248;2023-08-20T13:05:53;33.60;99.90
16781;DHT22;8507;50.056;8.248;2023-08-20T13:08:19;34.20;99.90
16781;DHT22;8507;50.056;8.248;2023-08-20T13:10:53;34.70;99.90
16781;DHT22;8507;50.056;8.248;2023-08-20T13:13:21;34.70;99.90
16781;DHT22;8507;50.056;8.248;2023-08-20T13:15:48;34.90;99.90
16781;DHT22;8507;50.056;8.248;2023-08-20T13:18:14;35.00;99.90
16781;DHT22;8507;50.056;8.248;2023-08-20T13:20:40;34.90;99.90
16781;DHT22;8507;50.056;8.248;2023-08-20T13:23:05;35.10;99.90
16781;DHT22;8507;50.056;8.248;2023-08-20T13:25:31;35.00;99.90
16781;DHT22;8507;50.056;8.248;2023-08-20T13:27:56;35.20;99.90
16781;DHT22;8507;50.056;8.248;2023-08-20T13:30:22;35.30;99.90
16781;DHT22;8507;50.056;8.248;2023-08-20T13:32:48;35.40;99.90
16781;DHT22;8507;50.056;8.248;2023-08-20T13:35:14;35.30;99.90
16781;DHT22;8507;50.056;8.248;2023-08-20T13:37:39;35.30;99.90
16781;DHT22;8507;50.056;8.248;2023-08-20T13:40:06;35.40;99.90
16781;DHT22;8507;50.056;8.248;2023-08-20T13:42:34;35.40;99.90
16781;DHT22;8507;50.056;8.248;2023-08-20T13:45:00;35.20;99.90
16781;DHT22;8507;50.056;8.248;2023-08-20T13:47:26;35.30;99.90
16781;DHT22;8507;50.056;8.248;2023-08-20T13:49:51;35.30;99.90
16781;DHT22;8507;50.056;8.248;2023-08-20T13:52:17;35.40;99.90
16781;DHT22;8507;50.056;8.248;2023-08-20T13:54:42;35.50;99.90
16781;DHT22;8507;50.056;8.248;2023-08-20T13:57:08;35.60;99.90
16781;DHT22;8507;50.056;8.248;2023-08-20T13:59:34;35.70;99.90
16781;DHT22;8507;50.056;8.248;2023-08-20T14:01:59;35.80;99.90
16781;DHT22;8507;50.056;8.248;2023-08-20T14:04:25;35.30;99.90
16781;DHT22;8507;50.056;8.248;2023-08-20T14:06:50;35.30;99.90
16781;DHT22;8507;50.056;8.248;2023-08-20T14:09:16;35.60;99.90
16781;DHT22;8507;50.056;8.248;2023-08-20T14:11:48;35.70;99.90
16781;DHT22;8507;50.056;8.248;2023-08-20T14:14:13;35.70;99.90
16781;DHT22;8507;50.056;8.248;2023-08-20T14:16:39;35.60;99.90
16781;DHT22;8507;50.056;8.248;2023-08-20T14:19:05;35.70;99.90
16781;DHT22;8507;50.056;8.248;2023-08-20T14:21:31;35.90;99.90
16781;DHT22;8507;50.056;8.248;2023-08-20T14:23:56;35.80;99.90
16781;DHT22;8507;50.056;8.248;2023-08-20T14:26:22;35.80;99.90
16781;DHT22;8507;50.056;8.248;2023-08-20T14:28:47;35.80;99.90
16781;DHT22;8507;50.056;8.248;2023-08-20T14:31:13;35.40;99.90
16781;DHT22;8507;50.056;8.248;2023-08-20T14:33:39;34.20;99.90
16781;DHT22;8507;50.056;8.248;2023-08-20T14:36:05;33.20;99.90
16781;DHT22;8507;50.056;8.248;2023-08-20T14:38:31;32.90;99.90
16781;DHT22;8507;50.056;8.248;2023-08-20T14:41:01;33.00;99.90
16781;DHT22;8507;50.056;8.248;2023-08-20T14:43:27;33.40;99.90
16781;DHT22;8507;50.056;8.248;2023-08-20T14:45:52;33.10;99.90
16781;DHT22;8507;50.056;8.248;2023-08-20T14:48:19;33.10;99.90
16781;DHT22;8507;50.056;8.248;2023-08-20T14:50:45;33.20;99.90
16781;DHT22;8507;50.056;8.248;2023-08-20T14:53:10;32.50;99.90
16781;DHT22;8507;50.056;8.248;2023-08-20T14:55:36;32.50;99.90
16781;DHT22;8507;50.056;8.248;2023-08-20T14:58:02;32.50;99.90
16781;DHT22;8507;50.056;8.248;2023-08-20T15:00:32;32.20;99.90
16781;DHT22;8507;50.056;8.248;2023-08-20T15:02:57;32.30;99.90
16781;DHT22;8507;50.056;8.248;2023-08-20T15:05:23;32.50;99.90
16781;DHT22;8507;50.056;8.248;2023-08-20T15:07:48;33.00;99.90
16781;DHT22;8507;50.056;8.248;2023-08-20T15:10:14;33.40;99.90
16781;DHT22;8507;50.056;8.248;2023-08-20T15:12:39;33.40;99.90
16781;DHT22;8507;50.056;8.248;2023-08-20T15:15:05;33.40;99.90
16781;DHT22;8507;50.056;8.248;2023-08-20T15:17:32;32.60;99.90
16781;DHT22;8507;50.056;8.248;2023-08-20T15:19:58;32.30;99.90
16781;DHT22;8507;50.056;8.248;2023-08-20T15:22:23;32.70;99.90
16781;DHT22;8507;50.056;8.248;2023-08-20T15:24:49;32.90;99.90
16781;DHT22;8507;50.056;8.248;2023-08-20T15:27:16;33.00;99.90
16781;DHT22;8507;50.056;8.248;2023-08-20T15:29:42;33.10;99.90
16781;DHT22;8507;50.056;8.248;2023-08-20T15:32:08;33.30;99.90
16781;DHT22;8507;50.056;8.248;2023-08-20T15:34:34;33.40;99.90
16781;DHT22;8507;50.056;8.248;2023-08-20T15:36:59;33.40;99.90
16781;DHT22;8507;50.056;8.248;2023-08-20T15:39:25;33.40;99.90
16781;DHT22;8507;50.056;8.248;2023-08-20T15:41:50;33.50;99.90
16781;DHT22;8507;50.056;8.248;2023-08-20T15:44:16;33.40;99.90
16781;DHT22;8507;50.056;8.248;2023-08-20T15:46:42;33.50;99.90
16781;DHT22;8507;50.056;8.248;2023-08-20T15:49:07;33.50;99.90
16781;DHT22;8507;50.056;8.248;2023-08-20T15:51:33;33.60;99.90
16781;DHT22;8507;50.056;8.248;2023-08-20T15:53:59;33.70;99.90